Time;durP1;ratioP1;P1;durP2;ratioP2;P2;SDS_P1;SDS_P2;PMS_P1;PMS_P2;Temp;Humidity;BMP_temperature;BMP_pressure;BME280_temperature;BME280_humidity;BME280_pressure;Samples;Min_cycle;Max_cycle;Signal;HPM_P1;HPM_P2
2022/10/10 00:01:12;;;;;;;;;;;;;;;6.96;100.00;99018.05;1694666;81;24144;-86
2022/10/10 00:03:44;;;;;;;;;;;;;;;7.07;100.00;99011.89;1684808;83;20244;-87
2022/10/10 00:06:10;;;;;;;;;;;;;;;7.10;100.00;99009.13;1722049;80;26187;-87
2022/10/10 00:08:37;;;;;;;;;;;;;;;7.18;100.00;99000.97;1717373;80;24536;-87
2022/10/10 00:11:03;;;;;;;;;;;;;;;7.24;100.00;99003.29;1728389;80;20521;-86
2022/10/10 00:13:30;;;;;;;;;;;;;;;7.26;100.00;99011.84;1729904;81;24844;-86
2022/10/10 00:15:56;;;;;;;;;;;;;;;7.18;100.00;99007.48;1724934;81;22910;-87
2022/10/10 00:18:28;;;;;;;;;;;;;;;7.05;100.00;99009.80;1727407;81;20959;-89
2022/10/10 00:20:53;;;;;;;;;;;;;;;7.10;100.00;99003.08;1722640;78;25198;-88
2022/10/10 00:23:20;;;;;;;;;;;;;;;6.96;100.00;99001.58;1729714;80;20352;-88
2022/10/10 00:25:48;;;;;;;;;;;;;;;6.92;100.00;99000.05;1726488;80;24784;-87
2022/10/10 00:28:14;;;;;;;;;;;;;;;6.78;100.00;98998.06;1732038;80;21998;-88
2022/10/10 00:30:40;;;;;;;;;;;;;;;6.82;100.00;98994.39;1729664;81;26585;-89
2022/10/10 00:33:06;;;;;;;;;;;;;;;6.76;100.00;98996.45;1725188;80;20242;-89
2022/10/10 00:35:35;;;;;;;;;;;;;;;6.63;100.00;98994.86;1732917;80;20793;-89
2022/10/10 00:38:00;;;;;;;;;;;;;;;6.54;100.00;98991.38;1732488;81;24752;-87
2022/10/10 00:40:28;;;;;;;;;;;;;;;6.43;100.00;98993.61;1726308;80;20802;-87
2022/10/10 00:42:54;;;;;;;;;;;;;;;6.30;100.00;98995.44;1720147;81;25917;-88
2022/10/10 00:45:31;;;;;;;;;;;;;;;6.25;100.00;98993.95;1724612;80;20248;-85
2022/10/10 00:47:59;;;;;;;;;;;;;;;6.16;100.00;98993.91;1723460;81;20364;-87
2022/10/10 00:50:30;;;;;;;;;;;;;;;6.12;100.00;98990.18;1692325;82;24317;-87
2022/10/10 00:52:57;;;;;;;;;;;;;;;6.10;100.00;98989.42;1673926;82;22112;-87
2022/10/10 00:55:24;;;;;;;;;;;;;;;6.13;100.00;98990.13;1669469;83;26176;-87
2022/10/10 00:57:50;;;;;;;;;;;;;;;6.13;100.00;98987.97;1695078;82;24403;-87
2022/10/10 01:00:16;;;;;;;;;;;;;;;6.18;100.00;98988.17;1681976;82;20450;-86
2022/10/10 01:02:42;;;;;;;;;;;;;;;6.29;100.00;98981.20;1677878;83;25457;-85
2022/10/10 01:05:08;;;;;;;;;;;;;;;6.34;100.00;98984.44;1680093;83;20848;-83
2022/10/10 01:07:39;;;;;;;;;;;;;;;6.43;100.00;98980.16;1656918;84;20984;-84
2022/10/10 01:10:07;;;;;;;;;;;;;;;6.50;100.00;98974.20;1650772;83;24620;-83
2022/10/10 01:12:47;;;;;;;;;;;;;;;6.53;100.00;98976.69;1655251;84;20271;-85
2022/10/10 01:15:37;;;;;;;;;;;;;;;6.55;100.00;98972.23;1652595;84;24975;-87
2022/10/10 01:18:08;;;;;;;;;;;;;;;6.58;100.00;98976.86;1676765;82;22087;-88
2022/10/10 01:20:38;;;;;;;;;;;;;;;6.69;100.00;98969.88;1695976;83;25484;-87
2022/10/10 01:23:22;;;;;;;;;;;;;;;6.73;100.00;98962.31;1681047;82;24563;-83
2022/10/10 01:25:59;;;;;;;;;;;;;;;6.78;100.00;98961.64;1679325;83;20249;-83
2022/10/10 01:28:41;;;;;;;;;;;;;;;6.87;100.00;98956.03;1679591;82;24193;-83
2022/10/10 01:31:15;;;;;;;;;;;;;;;6.89;100.00;98959.39;1666778;81;22134;-88
2022/10/10 01:33:42;;;;;;;;;;;;;;;6.95;100.00;98963.01;1724891;80;26031;-83
2022/10/10 01:36:28;;;;;;;;;;;;;;;7.06;100.00;98967.70;1686507;83;24768;-87
2022/10/10 01:38:59;;;;;;;;;;;;;;;7.11;100.00;98961.38;1665169;84;20303;-88
2022/10/10 01:41:39;;;;;;;;;;;;;;;7.18;100.00;98957.17;1686023;82;25070;-88
2022/10/10 01:44:05;;;;;;;;;;;;;;;7.21;100.00;98954.41;1687548;83;22108;-84
2022/10/10 01:46:32;;;;;;;;;;;;;;;7.24;100.00;98950.38;1697388;83;26065;-84
2022/10/10 01:49:01;;;;;;;;;;;;;;;7.28;100.00;98955.81;1663018;82;20232;-84
2022/10/10 01:51:28;;;;;;;;;;;;;;;7.31;100.00;98950.48;1695834;82;20361;-83
2022/10/10 01:53:56;;;;;;;;;;;;;;;7.38;100.00;98947.94;1687191;82;24930;-84
2022/10/10 01:56:24;;;;;;;;;;;;;;;7.46;100.00;98949.27;1690666;82;21976;-84
2022/10/10 01:59:01;;;;;;;;;;;;;;;7.54;100.00;98934.09;1690176;82;26228;-83
2022/10/10 02:01:34;;;;;;;;;;;;;;;7.56;100.00;98932.73;1687857;82;24718;-83
2022/10/10 02:04:08;;;;;;;;;;;;;;;7.66;100.00;98935.70;1676415;82;20178;-83
2022/10/10 02:06:36;;;;;;;;;;;;;;;7.76;100.00;98933.02;1671513;83;24754;-86
2022/10/10 02:09:13;;;;;;;;;;;;;;;7.93;100.00;98934.31;1697489;81;22037;-86
2022/10/10 02:11:41;;;;;;;;;;;;;;;7.90;100.00;98931.88;1687868;82;25989;-86
2022/10/10 02:14:14;;;;;;;;;;;;;;;7.88;100.00;98930.64;1692372;82;24547;-88
2022/10/10 02:16:45;;;;;;;;;;;;;;;7.82;100.00;98938.77;1724106;80;20220;-88
2022/10/10 02:19:12;;;;;;;;;;;;;;;7.72;100.00;98929.73;1730564;80;24440;-87
2022/10/10 02:21:39;;;;;;;;;;;;;;;7.64;100.00;98931.87;1721796;82;21970;-88
2022/10/10 02:24:12;;;;;;;;;;;;;;;7.61;100.00;98932.03;1723392;80;27080;-88
2022/10/10 02:26:48;;;;;;;;;;;;;;;7.56;100.00;98937.94;1729322;80;24461;-88
2022/10/10 02:29:16;;;;;;;;;;;;;;;7.51;100.00;98936.87;1726603;80;20214;-88
2022/10/10 02:31:44;;;;;;;;;;;;;;;7.45;100.00;98933.26;1687486;81;25005;-88
2022/10/10 02:34:14;;;;;;;;;;;;;;;7.46;100.00;98930.20;1695052;82;21966;-88
2022/10/10 02:36:45;;;;;;;;;;;;;;;7.42;100.00;98929.94;1720908;81;26062;-86
2022/10/10 02:39:12;;;;;;;;;;;;;;;7.40;100.00;98930.04;1725524;81;24468;-86
2022/10/10 02:41:39;;;;;;;;;;;;;;;7.37;100.00;98930.62;1700419;82;20247;-86
2022/10/10 02:44:05;;;;;;;;;;;;;;;7.35;100.00;98940.30;1676382;82;24812;-87
2022/10/10 02:46:31;;;;;;;;;;;;;;;7.47;100.00;98933.19;1696310;83;22013;-87
2022/10/10 02:48:59;;;;;;;;;;;;;;;7.55;100.00;98924.52;1698213;82;26003;-87
2022/10/10 02:51:26;;;;;;;;;;;;;;;7.54;100.00;98921.53;1686331;83;24635;-87
2022/10/10 02:53:52;;;;;;;;;;;;;;;7.54;100.00;98921.53;1733190;81;20217;-87
2022/10/10 02:56:18;;;;;;;;;;;;;;;7.55;100.00;98921.92;1681607;82;20200;-88
2022/10/10 02:58:44;;;;;;;;;;;;;;;7.60;100.00;98921.23;1691104;82;20243;-88
2022/10/10 03:01:10;;;;;;;;;;;;;;;7.58;100.00;98924.39;1689417;82;21139;-87
2022/10/10 03:03:36;;;;;;;;;;;;;;;7.59;100.00;98923.44;1656037;84;24415;-87
2022/10/10 03:06:02;;;;;;;;;;;;;;;7.60;100.00;98922.53;1674702;82;20307;-84
2022/10/10 03:08:28;;;;;;;;;;;;;;;7.64;100.00;98918.03;1680755;82;20772;-84
2022/10/10 03:10:58;;;;;;;;;;;;;;;7.63;100.00;98921.55;1692319;82;21150;-86
2022/10/10 03:13:24;;;;;;;;;;;;;;;7.59;100.00;98919.53;1695779;82;26198;-88
2022/10/10 03:15:49;;;;;;;;;;;;;;;7.61;100.00;98919.02;1704111;83;20260;-87
2022/10/10 03:18:18;;;;;;;;;;;;;;;7.62;100.00;98915.95;1698710;83;20172;-88
2022/10/10 03:20:44;;;;;;;;;;;;;;;7.73;100.00;98919.70;1690981;82;24785;-87
2022/10/10 03:23:11;;;;;;;;;;;;;;;7.88;100.00;98911.10;1687682;83;22777;-88
2022/10/10 03:25:43;;;;;;;;;;;;;;;8.02;100.00;98910.86;1683625;83;26006;-88
2022/10/10 03:28:10;;;;;;;;;;;;;;;8.05;100.00;98911.53;1651160;83;22634;-88
2022/10/10 03:30:37;;;;;;;;;;;;;;;8.05;100.00;98899.81;1669005;83;20223;-84
2022/10/10 03:33:11;;;;;;;;;;;;;;;8.08;100.00;98905.30;1674322;83;24653;-84
2022/10/10 03:35:37;;;;;;;;;;;;;;;8.14;100.00;98904.53;1678386;83;22128;-87
2022/10/10 03:38:03;;;;;;;;;;;;;;;8.22;100.00;98904.98;1688339;82;20985;-86
2022/10/10 03:40:29;;;;;;;;;;;;;;;8.27;100.00;98903.44;1696891;81;24417;-88
2022/10/10 03:42:56;;;;;;;;;;;;;;;8.20;100.00;98898.16;1680392;83;20249;-87
2022/10/10 03:45:23;;;;;;;;;;;;;;;8.21;100.00;98897.23;1689265;82;25810;-87
2022/10/10 03:47:49;;;;;;;;;;;;;;;8.23;100.00;98901.46;1712819;80;22262;-88
2022/10/10 03:50:15;;;;;;;;;;;;;;;8.25;100.00;98901.36;1719131;80;26004;-88
2022/10/10 03:52:48;;;;;;;;;;;;;;;8.23;100.00;98899.31;1695724;82;20231;-88
2022/10/10 03:55:14;;;;;;;;;;;;;;;8.25;100.00;98899.59;1721945;80;20238;-87
2022/10/10 03:57:40;;;;;;;;;;;;;;;8.21;100.00;98901.98;1726685;80;20770;-87
2022/10/10 04:00:06;;;;;;;;;;;;;;;8.15;100.00;98897.55;1729923;80;20847;-87
2022/10/10 04:02:32;;;;;;;;;;;;;;;7.97;100.00;98898.05;1710270;81;26111;-87
2022/10/10 04:05:02;;;;;;;;;;;;;;;7.83;100.00;98891.41;1724218;80;20291;-83
2022/10/10 04:07:28;;;;;;;;;;;;;;;7.81;100.00;98890.18;1719989;80;20256;-86
2022/10/10 04:09:55;;;;;;;;;;;;;;;7.79;100.00;98891.20;1723942;81;20366;-86
2022/10/10 04:12:23;;;;;;;;;;;;;;;7.78;100.00;98892.95;1702886;82;22030;-88
2022/10/10 04:14:49;;;;;;;;;;;;;;;7.86;100.00;98890.78;1723147;80;21127;-86
2022/10/10 04:17:18;;;;;;;;;;;;;;;7.88;100.00;98892.86;1718383;81;24492;-86
2022/10/10 04:19:46;;;;;;;;;;;;;;;7.85;100.00;98892.19;1683363;83;20272;-87
2022/10/10 04:22:13;;;;;;;;;;;;;;;7.72;100.00;98895.87;1724506;80;24752;-86
2022/10/10 04:24:39;;;;;;;;;;;;;;;7.60;100.00;98896.94;1729232;81;21928;-86
2022/10/10 04:27:04;;;;;;;;;;;;;;;7.56;100.00;98892.36;1722828;81;21770;-86
2022/10/10 04:29:31;;;;;;;;;;;;;;;7.57;100.00;98894.05;1727397;81;20420;-86
2022/10/10 04:31:57;;;;;;;;;;;;;;;7.67;100.00;98890.05;1729646;81;20351;-88
2022/10/10 04:34:23;;;;;;;;;;;;;;;7.68;100.00;98885.23;1717978;80;20738;-84
2022/10/10 04:36:49;;;;;;;;;;;;;;;7.73;100.00;98888.44;1715234;80;20808;-84
2022/10/10 04:39:18;;;;;;;;;;;;;;;7.75;100.00;98889.64;1683609;83;21724;-88
2022/10/10 04:41:49;;;;;;;;;;;;;;;7.70;100.00;98889.04;1720767;80;24468;-88
2022/10/10 04:44:15;;;;;;;;;;;;;;;7.61;100.00;98882.55;1692955;82;20241;-87
2022/10/10 04:46:41;;;;;;;;;;;;;;;7.62;100.00;98883.39;1687613;83;24935;-87
2022/10/10 04:49:07;;;;;;;;;;;;;;;7.66;100.00;98884.45;1675386;83;20320;-87
2022/10/10 04:51:39;;;;;;;;;;;;;;;7.75;100.00;98885.73;1696598;82;20918;-86
2022/10/10 04:54:05;;;;;;;;;;;;;;;7.77;100.00;98881.30;1695868;82;24492;-86
2022/10/10 04:56:31;;;;;;;;;;;;;;;7.73;100.00;98883.23;1690745;83;20239;-86
2022/10/10 04:58:56;;;;;;;;;;;;;;;7.69;100.00;98883.47;1685510;82;20248;-83
2022/10/10 05:01:22;;;;;;;;;;;;;;;7.56;100.00;98884.55;1692448;82;20215;-84
2022/10/10 05:03:48;;;;;;;;;;;;;;;7.46;100.00;98880.27;1690147;83;20998;-83
2022/10/10 05:06:23;;;;;;;;;;;;;;;7.43;100.00;98883.00;1665994;83;20260;-87
2022/10/10 05:08:53;;;;;;;;;;;;;;;7.49;100.00;98877.49;1686084;82;20556;-87
2022/10/10 05:11:18;;;;;;;;;;;;;;;7.45;100.00;98876.43;1694766;81;24960;-87
2022/10/10 05:13:44;;;;;;;;;;;;;;;7.36;100.00;98871.69;1689678;82;20358;-87
2022/10/10 05:16:11;;;;;;;;;;;;;;;7.25;100.00;98873.98;1687161;83;21072;-87
2022/10/10 05:18:45;;;;;;;;;;;;;;;7.27;100.00;98866.92;1688815;82;24402;-87
2022/10/10 05:21:11;;;;;;;;;;;;;;;7.35;100.00;98868.70;1690003;81;20217;-83
2022/10/10 05:23:40;;;;;;;;;;;;;;;7.42;100.00;98865.69;1696575;82;24756;-83
2022/10/10 05:26:07;;;;;;;;;;;;;;;7.52;100.00;98862.19;1690518;83;22147;-83
2022/10/10 05:28:34;;;;;;;;;;;;;;;7.56;100.00;98861.11;1695723;83;26879;-87
2022/10/10 05:31:00;;;;;;;;;;;;;;;7.62;100.00;98860.80;1673443;84;24548;-86
2022/10/10 05:33:26;;;;;;;;;;;;;;;7.70;100.00;98861.23;1666869;84;20317;-87
2022/10/10 05:35:52;;;;;;;;;;;;;;;7.68;100.00;98856.58;1702195;82;20601;-84
2022/10/10 05:38:18;;;;;;;;;;;;;;;7.65;100.00;98858.02;1697118;82;22102;-85
2022/10/10 05:40:45;;;;;;;;;;;;;;;7.60;100.00;98858.72;1675171;82;20994;-87
2022/10/10 05:43:11;;;;;;;;;;;;;;;7.57;100.00;98858.89;1724147;81;24434;-89
2022/10/10 05:45:38;;;;;;;;;;;;;;;7.63;100.00;98864.25;1722622;80;20495;-83
2022/10/10 05:48:04;;;;;;;;;;;;;;;7.63;100.00;98863.79;1721772;81;24918;-86
2022/10/10 05:50:32;;;;;;;;;;;;;;;7.60;100.00;98858.72;1722766;80;20308;-86
2022/10/10 05:52:58;;;;;;;;;;;;;;;7.50;100.00;98858.35;1717738;80;26034;-86
2022/10/10 05:55:24;;;;;;;;;;;;;;;7.52;100.00;98857.83;1706614;82;24667;-88
2022/10/10 05:57:50;;;;;;;;;;;;;;;7.51;100.00;98856.59;1679600;82;20625;-87
2022/10/10 06:00:15;;;;;;;;;;;;;;;7.43;100.00;98851.76;1675646;82;20817;-87
2022/10/10 06:02:41;;;;;;;;;;;;;;;7.44;100.00;98852.60;1685927;83;20245;-87
2022/10/10 06:05:07;;;;;;;;;;;;;;;7.40;100.00;98855.83;1695320;82;21241;-87
2022/10/10 06:07:38;;;;;;;;;;;;;;;7.42;100.00;98859.64;1693376;82;23857;-87
2022/10/10 06:10:05;;;;;;;;;;;;;;;7.40;100.00;98853.69;1662538;84;20832;-88
2022/10/10 06:12:30;;;;;;;;;;;;;;;7.33;100.00;98857.50;1687523;82;24813;-87
2022/10/10 06:15:03;;;;;;;;;;;;;;;7.34;100.00;98856.14;1658998;83;22190;-88
2022/10/10 06:17:28;;;;;;;;;;;;;;;7.38;100.00;98860.72;1691177;81;26083;-87
2022/10/10 06:19:54;;;;;;;;;;;;;;;7.44;100.00;98855.20;1687369;82;20236;-83
2022/10/10 06:22:20;;;;;;;;;;;;;;;7.51;100.00;98861.80;1694208;83;20357;-83
2022/10/10 06:24:46;;;;;;;;;;;;;;;7.58;100.00;98857.13;1681161;83;24827;-88
2022/10/10 06:27:12;;;;;;;;;;;;;;;7.63;100.00;98859.03;1695112;83;20924;-88
2022/10/10 06:29:37;;;;;;;;;;;;;;;7.69;100.00;98856.94;1666670;82;21872;-85
2022/10/10 06:32:03;;;;;;;;;;;;;;;7.72;100.00;98862.00;1679977;82;20232;-86
2022/10/10 06:34:29;;;;;;;;;;;;;;;7.80;100.00;98861.13;1683781;83;20296;-83
2022/10/10 06:36:58;;;;;;;;;;;;;;;7.84;100.00;98862.68;1682207;82;20916;-88
2022/10/10 06:39:24;;;;;;;;;;;;;;;7.87;100.00;98858.59;1698855;83;22039;-88
2022/10/10 06:41:54;;;;;;;;;;;;;;;7.93;100.00;98857.44;1692461;83;26083;-87
2022/10/10 06:44:18;;;;;;;;;;;;;;;7.99;100.00;98861.03;1664421;83;25314;-84
2022/10/10 06:46:44;;;;;;;;;;;;;;;8.04;100.00;98859.02;1645940;84;20273;-84
2022/10/10 06:49:12;;;;;;;;;;;;;;;8.15;100.00;98859.75;1663374;83;20232;-84
2022/10/10 06:51:39;;;;;;;;;;;;;;;8.25;100.00;98866.16;1683673;83;23543;-84
2022/10/10 06:54:08;;;;;;;;;;;;;;;8.42;100.00;98864.83;1659980;84;27583;-84
2022/10/10 06:56:33;;;;;;;;;;;;;;;8.58;100.00;98861.76;1692969;82;24682;-84
2022/10/10 06:58:59;;;;;;;;;;;;;;;8.66;100.00;98863.95;1691037;82;20274;-88
2022/10/10 07:01:25;;;;;;;;;;;;;;;8.69;100.00;98861.16;1693284;82;20287;-86
2022/10/10 07:03:51;;;;;;;;;;;;;;;8.77;100.00;98856.38;1684017;82;21963;-86
2022/10/10 07:06:17;;;;;;;;;;;;;;;8.88;100.00;98860.53;1696995;82;21132;-87
2022/10/10 07:08:43;;;;;;;;;;;;;;;8.97;100.00;98853.48;1702008;82;20292;-88
2022/10/10 07:11:15;;;;;;;;;;;;;;;9.08;100.00;98860.70;1704097;83;20273;-88
2022/10/10 07:13:40;;;;;;;;;;;;;;;9.27;100.00;98857.42;1720789;80;24944;-86
2022/10/10 07:16:06;;;;;;;;;;;;;;;9.37;100.00;98862.49;1712695;80;20324;-86
2022/10/10 07:18:35;;;;;;;;;;;;;;;9.41;100.00;98859.23;1726022;80;26012;-86
2022/10/10 07:21:01;;;;;;;;;;;;;;;9.36;100.00;98838.60;1720057;80;24729;-86
2022/10/10 07:23:27;;;;;;;;;;;;;;;9.54;100.00;98851.90;1716737;80;20491;-86
2022/10/10 07:26:09;;;;;;;;;;;;;;;9.62;100.00;98854.89;1724496;80;20246;-88
2022/10/10 07:28:35;;;;;;;;;;;;;;;9.76;100.00;98857.16;1722805;80;22094;-83
2022/10/10 07:31:06;;;;;;;;;;;;;;;9.87;100.00;98856.05;1723266;80;26082;-82
2022/10/10 07:33:37;;;;;;;;;;;;;;;9.95;100.00;98856.41;1713030;81;25506;-83
2022/10/10 07:36:04;;;;;;;;;;;;;;;9.95;100.00;98846.80;1721304;81;20321;-84
2022/10/10 07:38:40;;;;;;;;;;;;;;;10.09;100.00;98853.32;1728679;81;24791;-89
2022/10/10 07:41:06;;;;;;;;;;;;;;;10.20;100.00;98852.70;1679842;83;22043;-88
2022/10/10 07:43:32;;;;;;;;;;;;;;;10.31;100.00;98850.75;1683794;82;26756;-86
2022/10/10 07:45:58;;;;;;;;;;;;;;;10.46;100.00;98850.63;1688587;81;20556;-86
2022/10/10 07:48:25;;;;;;;;;;;;;;;10.60;100.00;98847.59;1689669;81;20296;-86
2022/10/10 07:50:51;;;;;;;;;;;;;;;10.76;100.00;98850.92;1686002;82;24783;-86
2022/10/10 07:53:17;;;;;;;;;;;;;;;10.96;100.00;98844.42;1695130;82;22113;-83
2022/10/10 07:55:43;;;;;;;;;;;;;;;11.04;100.00;98845.59;1684475;82;26121;-83
2022/10/10 07:58:10;;;;;;;;;;;;;;;11.06;100.00;98828.00;1687725;82;20434;-83
2022/10/10 08:00:37;;;;;;;;;;;;;;;11.27;100.00;98848.86;1693145;82;20503;-83
2022/10/10 08:03:03;;;;;;;;;;;;;;;11.39;100.00;98842.44;1674997;82;26563;-84
2022/10/10 08:05:29;;;;;;;;;;;;;;;11.52;100.00;98846.73;1672633;83;20800;-84
2022/10/10 08:07:54;;;;;;;;;;;;;;;11.64;100.00;98846.39;1685258;81;21004;-88
2022/10/10 08:10:20;;;;;;;;;;;;;;;11.72;100.00;98842.80;1677782;81;20286;-88
2022/10/10 08:12:46;;;;;;;;;;;;;;;11.87;100.00;98841.77;1701160;81;20284;-88
2022/10/10 08:15:18;;;;;;;;;;;;;;;12.02;100.00;98842.50;1692364;82;20839;-88
2022/10/10 08:17:44;;;;;;;;;;;;;;;12.20;100.00;98844.32;1694477;82;22049;-86
2022/10/10 08:20:09;;;;;;;;;;;;;;;12.34;100.00;98842.87;1696311;82;21138;-86
2022/10/10 08:22:35;;;;;;;;;;;;;;;12.45;100.00;98845.10;1702034;82;20282;-86
2022/10/10 08:25:01;;;;;;;;;;;;;;;12.61;100.00;98838.75;1678146;83;20247;-84
2022/10/10 08:27:28;;;;;;;;;;;;;;;12.72;100.00;98836.20;1694355;82;20802;-86
2022/10/10 08:29:56;;;;;;;;;;;;;;;12.84;100.00;98830.06;1676001;83;22166;-86
2022/10/10 08:32:25;;;;;;;;;;;;;;;12.88;100.00;98818.38;1682727;82;26022;-89
2022/10/10 08:34:51;;;;;;;;;;;;;;;12.99;100.00;98821.90;1684487;83;24309;-89
2022/10/10 08:40:27;;;;;;;;;;;;;;;13.18;100.00;98821.89;1682973;82;20995;-89
2022/10/10 08:42:55;;;;;;;;;;;;;;;13.30;100.00;98815.26;1696788;82;22882;-86
2022/10/10 08:45:23;;;;;;;;;;;;;;;13.33;100.00;98816.80;1692574;83;26001;-86
2022/10/10 08:47:52;;;;;;;;;;;;;;;13.44;100.00;98815.52;1676751;82;24719;-86
2022/10/10 08:50:27;;;;;;;;;;;;;;;13.53;100.00;98818.77;1682015;82;20204;-84
2022/10/10 08:52:54;;;;;;;;;;;;;;;13.61;100.00;98820.34;1682611;82;24867;-84
2022/10/10 08:55:25;;;;;;;;;;;;;;;13.71;100.00;98819.16;1678592;82;22215;-84
2022/10/10 08:57:56;;;;;;;;;;;;;;;13.83;100.00;98826.13;1676615;83;26190;-86
2022/10/10 09:00:24;;;;;;;;;;;;;;;13.90;100.00;98819.44;1669414;83;24407;-86
2022/10/10 09:03:00;;;;;;;;;;;;;;;14.00;100.00;98818.24;1681238;82;20195;-88
2022/10/10 09:05:32;;;;;;;;;;;;;;;14.15;100.00;98814.41;1681802;83;24859;-88
2022/10/10 09:08:02;;;;;;;;;;;;;;;14.26;100.00;98815.72;1688611;83;22223;-87
2022/10/10 09:10:39;;;;;;;;;;;;;;;14.33;100.00;98809.02;1695209;82;25856;-83
2022/10/10 09:13:23;;;;;;;;;;;;;;;14.36;100.00;98811.40;1687638;82;24652;-83
2022/10/10 09:15:54;;;;;;;;;;;;;;;14.45;100.00;98802.83;1685605;82;20216;-84
2022/10/10 09:18:22;;;;;;;;;;;;;;;14.53;100.00;98803.03;1687937;82;25467;-83
2022/10/10 09:20:52;;;;;;;;;;;;;;;14.58;100.00;98800.86;1689328;82;22111;-84
2022/10/10 09:23:26;;;;;;;;;;;;;;;14.60;100.00;98800.75;1663684;83;26016;-84
2022/10/10 09:25:59;;;;;;;;;;;;;;;14.65;100.00;98798.58;1682151;82;24449;-83
2022/10/10 09:28:36;;;;;;;;;;;;;;;14.72;100.00;98793.66;1697405;82;20349;-86
2022/10/10 09:31:05;;;;;;;;;;;;;;;14.74;100.00;98792.55;1681596;81;25570;-84
2022/10/10 09:33:33;;;;;;;;;;;;;;;14.82;100.00;98793.27;1681075;82;21944;-83
2022/10/10 09:35:59;;;;;;;;;;;;;;;14.92;100.00;98791.06;1689166;83;26006;-90
2022/10/10 09:38:27;;;;;;;;;;;;;;;15.00;100.00;98795.72;1690743;82;24615;-85
2022/10/10 09:40:55;;;;;;;;;;;;;;;15.09;100.00;98784.41;1672910;83;20248;-84
2022/10/10 09:43:21;;;;;;;;;;;;;;;15.22;100.00;98782.41;1670272;83;24815;-84
2022/10/10 09:45:49;;;;;;;;;;;;;;;15.37;100.00;98779.00;1687858;82;22065;-83
2022/10/10 09:48:14;;;;;;;;;;;;;;;15.45;100.00;98787.09;1682625;82;25596;-88
2022/10/10 09:50:40;;;;;;;;;;;;;;;15.50;100.00;98780.46;1687125;81;20512;-86
2022/10/10 09:53:08;;;;;;;;;;;;;;;15.54;100.00;98783.73;1728409;79;20466;-86
2022/10/10 09:55:36;;;;;;;;;;;;;;;15.53;100.00;98784.69;1686130;82;24849;-88
2022/10/10 09:58:03;;;;;;;;;;;;;;;15.59;100.00;98778.06;1661255;84;22048;-88
2022/10/10 10:00:36;;;;;;;;;;;;;;;15.58;100.00;98773.73;1689755;82;26114;-88
2022/10/10 10:03:10;;;;;;;;;;;;;;;15.61;100.00;98772.98;1679821;82;25118;-89
2022/10/10 10:05:36;;;;;;;;;;;;;;;15.57;100.00;98767.63;1667425;83;20242;-88
2022/10/10 10:08:04;;;;;;;;;;;;;;;15.60;100.00;98762.08;1686915;82;20616;-86
2022/10/10 10:10:31;;;;;;;;;;;;;;;15.72;100.00;98764.16;1695803;82;22232;-89
2022/10/10 10:12:57;;;;;;;;;;;;;;;15.79;100.00;98766.15;1683203;82;26248;-88
2022/10/10 10:15:25;;;;;;;;;;;;;;;15.88;100.00;98761.39;1663533;84;20892;-88
2022/10/10 10:18:11;;;;;;;;;;;;;;;15.96;100.00;98768.66;1661026;84;20617;-88
2022/10/10 10:20:42;;;;;;;;;;;;;;;16.00;100.00;98770.05;1686475;81;24846;-89
2022/10/10 10:23:25;;;;;;;;;;;;;;;16.08;100.00;98762.80;1683911;82;21945;-89
2022/10/10 10:25:58;;;;;;;;;;;;;;;16.12;100.00;98761.08;1702526;83;25976;-86
2022/10/10 10:28:27;;;;;;;;;;;;;;;16.20;100.00;98754.62;1693260;82;24468;-89
2022/10/10 10:30:56;;;;;;;;;;;;;;;16.28;100.00;98750.00;1727407;81;20202;-84
2022/10/10 10:33:26;;;;;;;;;;;;;;;16.33;100.00;98752.59;1729586;80;24870;-84
2022/10/10 10:35:54;;;;;;;;;;;;;;;16.25;100.00;98743.68;1718301;80;22131;-86
2022/10/10 10:38:38;;;;;;;;;;;;;;;16.25;100.00;98743.20;1733821;81;26133;-86
2022/10/10 10:41:07;;;;;;;;;;;;;;;16.35;100.00;98746.34;1725125;81;24538;-84
2022/10/10 10:43:34;;;;;;;;;;;;;;;16.42;100.00;98740.88;1691014;83;20463;-89
2022/10/10 10:46:14;;;;;;;;;;;;;;;16.43;100.00;98734.59;1679150;82;24806;-84
2022/10/10 10:49:00;;;;;;;;;;;;;;;16.46;100.00;98735.66;1697099;82;22692;-91
2022/10/10 10:51:33;;;;;;;;;;;;;;;16.52;100.00;98728.02;1723106;82;26186;-90
2022/10/10 10:54:07;;;;;;;;;;;;;;;16.60;100.00;98724.70;1727528;79;25227;-89
2022/10/10 10:56:51;;;;;;;;;;;;;;;16.71;100.00;98724.58;1717427;80;20238;-84
2022/10/10 10:59:25;;;;;;;;;;;;;;;16.79;100.00;98715.48;1712187;80;24869;-84
2022/10/10 11:01:54;;;;;;;;;;;;;;;16.78;100.00;98712.48;1684785;82;22012;-84
2022/10/10 11:04:39;;;;;;;;;;;;;;;16.75;100.00;98706.14;1696276;83;26091;-90
2022/10/10 11:07:14;;;;;;;;;;;;;;;16.84;100.00;98708.45;1688943;83;25363;-91
2022/10/10 11:09:42;;;;;;;;;;;;;;;16.95;100.00;98707.83;1688170;82;20278;-88
2022/10/10 11:12:15;;;;;;;;;;;;;;;17.02;100.00;98707.59;1673376;83;24855;-86
2022/10/10 11:14:52;;;;;;;;;;;;;;;17.07;100.00;98704.03;1682684;82;21416;-86
2022/10/10 11:17:20;;;;;;;;;;;;;;;17.08;100.00;98688.52;1648185;84;26814;-86
2022/10/10 11:19:55;;;;;;;;;;;;;;;17.13;100.00;98700.82;1687718;82;24475;-88
2022/10/10 11:22:25;;;;;;;;;;;;;;;17.25;100.00;98688.27;1657313;84;20144;-88
2022/10/10 11:24:50;;;;;;;;;;;;;;;17.40;100.00;98688.67;1678681;83;25817;-86
2022/10/10 11:27:26;;;;;;;;;;;;;;;17.50;100.00;98683.70;1692781;83;22007;-86
2022/10/10 11:30:00;;;;;;;;;;;;;;;17.57;100.00;98682.12;1678567;83;27069;-84
2022/10/10 11:32:39;;;;;;;;;;;;;;;17.64;100.00;98680.25;1651877;83;25290;-90
2022/10/10 11:35:09;;;;;;;;;;;;;;;17.67;100.00;98672.88;1687168;83;20236;-86
2022/10/10 11:37:37;;;;;;;;;;;;;;;17.72;100.00;98673.75;1677769;82;24792;-85
2022/10/10 11:40:04;;;;;;;;;;;;;;;17.77;100.00;98668.85;1696264;81;22070;-90
2022/10/10 11:42:44;;;;;;;;;;;;;;;17.85;100.00;98658.34;1701144;81;26225;-89
2022/10/10 11:48:04;;;;;;;;;;;;;;;18.06;100.00;98654.11;1650390;83;21383;-89
2022/10/10 11:50:32;;;;;;;;;;;;;;;18.13;100.00;98653.86;1671615;83;24795;-89
2022/10/10 11:53:08;;;;;;;;;;;;;;;18.21;100.00;98652.64;1690915;81;21968;-88
2022/10/10 11:55:43;;;;;;;;;;;;;;;18.22;100.00;98644.52;1672611;83;26220;-89
2022/10/10 11:58:11;;;;;;;;;;;;;;;18.20;100.00;98648.32;1696343;82;24595;-88
2022/10/10 12:00:38;;;;;;;;;;;;;;;18.23;100.00;98644.03;1661764;83;20804;-84
2022/10/10 12:03:06;;;;;;;;;;;;;;;18.30;100.00;98642.46;1670455;82;24809;-84
2022/10/10 12:05:37;;;;;;;;;;;;;;;18.34;100.00;98634.54;1689648;82;21448;-84
2022/10/10 12:08:04;;;;;;;;;;;;;;;18.30;100.00;98635.34;1661656;84;26055;-84
2022/10/10 12:10:38;;;;;;;;;;;;;;;18.37;100.00;98633.77;1693664;83;24556;-84
2022/10/10 12:13:16;;;;;;;;;;;;;;;18.45;100.00;98631.67;1707250;82;20294;-90
2022/10/10 12:15:43;;;;;;;;;;;;;;;18.51;100.00;98635.03;1720625;80;24799;-88
2022/10/10 12:18:26;;;;;;;;;;;;;;;18.56;100.00;98624.84;1683848;83;22266;-85
2022/10/10 12:20:56;;;;;;;;;;;;;;;18.50;100.00;98624.09;1723951;80;26099;-88
2022/10/10 12:23:29;;;;;;;;;;;;;;;18.50;100.00;98625.91;1682550;81;25532;-88
2022/10/10 12:25:56;;;;;;;;;;;;;;;18.39;100.00;98619.02;1715276;81;20437;-86
2022/10/10 12:28:24;;;;;;;;;;;;;;;18.32;100.00;98617.98;1709826;81;24749;-85
2022/10/10 12:30:58;;;;;;;;;;;;;;;18.30;100.00;98614.64;1675028;82;22083;-85
2022/10/10 12:33:32;;;;;;;;;;;;;;;18.33;100.00;98611.19;1689801;82;26917;-84
2022/10/10 12:36:16;;;;;;;;;;;;;;;18.37;100.00;98613.06;1697797;82;24556;-83
2022/10/10 12:38:56;;;;;;;;;;;;;;;18.46;100.00;98610.81;1695785;82;20267;-83
2022/10/10 12:41:24;;;;;;;;;;;;;;;18.59;100.00;98606.48;1666963;82;24690;-85
2022/10/10 12:43:51;;;;;;;;;;;;;;;18.68;100.00;98609.53;1730217;80;22111;-83
2022/10/10 12:46:19;;;;;;;;;;;;;;;18.75;100.00;98610.10;1710355;80;26688;-85
2022/10/10 12:48:47;;;;;;;;;;;;;;;18.78;100.00;98600.50;1721190;81;24543;-85
2022/10/10 12:51:18;;;;;;;;;;;;;;;18.86;100.00;98599.73;1726299;80;20199;-88
2022/10/10 12:53:45;;;;;;;;;;;;;;;18.90;100.00;98602.90;1721113;80;25510;-84
2022/10/10 12:56:12;;;;;;;;;;;;;;;18.87;100.00;98599.25;1722362;80;22128;-84
2022/10/10 12:58:46;;;;;;;;;;;;;;;18.80;100.00;98593.23;1717249;80;26138;-89